sensor_id;sensor_type;location;lat;lon;timestamp;pressure;altitude;pressure_sealevel;temperature;humidity
23166;BME280;11751;42.700;24.170;2023-02-03T00:00:02;94030.41;;;1.37;92.89
23166;BME280;11751;42.700;24.170;2023-02-03T00:02:28;94031.41;;;1.34;93.31
23166;BME280;11751;42.700;24.170;2023-02-03T00:04:53;94038.19;;;1.39;92.87
23166;BME280;11751;42.700;24.170;2023-02-03T00:07:19;94029.94;;;1.44;92.44
23166;BME280;11751;42.700;24.170;2023-02-03T00:09:44;94052.00;;;1.55;92.00
23166;BME280;11751;42.700;24.170;2023-02-03T00:12:10;94032.19;;;1.46;92.21
23166;BME280;11751;42.700;24.170;2023-02-03T00:14:35;94049.25;;;1.50;92.58
23166;BME280;11751;42.700;24.170;2023-02-03T00:17:02;94060.28;;;1.50;92.21
23166;BME280;11751;42.700;24.170;2023-02-03T00:19:28;94039.47;;;1.60;91.26
23166;BME280;11751;42.700;24.170;2023-02-03T00:21:53;94052.00;;;1.55;91.81
23166;BME280;11751;42.700;24.170;2023-02-03T00:24:18;94048.25;;;1.69;91.68
23166;BME280;11751;42.700;24.170;2023-02-03T00:26:44;94036.97;;;1.51;91.81
23166;BME280;11751;42.700;24.170;2023-02-03T00:29:10;94035.47;;;1.55;91.22
23166;BME280;11751;42.700;24.170;2023-02-03T00:31:36;94050.25;;;1.58;91.90
23166;BME280;11751;42.700;24.170;2023-02-03T00:34:01;94063.50;;;1.37;91.71
23166;BME280;11751;42.700;24.170;2023-02-03T00:36:26;94052.72;;;1.39;91.16
23166;BME280;11751;42.700;24.170;2023-02-03T00:38:52;94069.56;;;1.58;86.05
23166;BME280;11751;42.700;24.170;2023-02-03T00:41:19;94064.06;;;1.58;82.21
23166;BME280;11751;42.700;24.170;2023-02-03T00:43:46;94061.06;;;1.72;83.41
23166;BME280;11751;42.700;24.170;2023-02-03T00:46:11;94052.78;;;1.67;87.69
23166;BME280;11751;42.700;24.170;2023-02-03T00:48:37;94055.25;;;1.59;80.79
23166;BME280;11751;42.700;24.170;2023-02-03T00:51:02;94058.81;;;1.70;75.65
23166;BME280;11751;42.700;24.170;2023-02-03T00:53:29;94063.31;;;1.84;75.16
23166;BME280;11751;42.700;24.170;2023-02-03T00:55:54;94051.00;;;1.91;73.52
23166;BME280;11751;42.700;24.170;2023-02-03T00:58:20;94054.28;;;2.00;72.93
23166;BME280;11751;42.700;24.170;2023-02-03T01:00:45;94053.78;;;2.07;72.70
23166;BME280;11751;42.700;24.170;2023-02-03T01:03:10;94048.72;;;2.06;71.65
23166;BME280;11751;42.700;24.170;2023-02-03T01:05:36;94049.50;;;2.06;72.22
23166;BME280;11751;42.700;24.170;2023-02-03T01:08:02;94055.75;;;2.12;71.79
23166;BME280;11751;42.700;24.170;2023-02-03T01:10:28;94049.25;;;2.15;72.31
23166;BME280;11751;42.700;24.170;2023-02-03T01:12:54;94071.59;;;2.12;72.16
23166;BME280;11751;42.700;24.170;2023-02-03T01:15:19;94058.03;;;2.08;71.00
23166;BME280;11751;42.700;24.170;2023-02-03T01:17:45;94069.81;;;2.14;71.40
23166;BME280;11751;42.700;24.170;2023-02-03T01:20:10;94060.28;;;2.04;70.93
23166;BME280;11751;42.700;24.170;2023-02-03T01:22:38;94049.25;;;2.10;71.11
23166;BME280;11751;42.700;24.170;2023-02-03T01:25:04;94038.72;;;2.08;71.42
23166;BME280;11751;42.700;24.170;2023-02-03T01:27:31;94041.22;;;2.06;71.33
23166;BME280;11751;42.700;24.170;2023-02-03T01:29:56;94049.75;;;2.08;72.00
23166;BME280;11751;42.700;24.170;2023-02-03T01:32:22;94048.72;;;2.11;71.69
23166;BME280;11751;42.700;24.170;2023-02-03T01:34:47;94056.78;;;2.09;70.70
23166;BME280;11751;42.700;24.170;2023-02-03T01:37:13;94044.47;;;2.16;72.01
23166;BME280;11751;42.700;24.170;2023-02-03T01:39:41;94052.78;;;2.10;70.94
23166;BME280;11751;42.700;24.170;2023-02-03T01:42:08;94055.75;;;2.12;71.14
23166;BME280;11751;42.700;24.170;2023-02-03T01:44:40;94055.03;;;2.17;70.66
23166;BME280;11751;42.700;24.170;2023-02-03T01:47:30;94060.53;;;2.12;71.28
23166;BME280;11751;42.700;24.170;2023-02-03T01:50:19;94060.28;;;2.04;70.81
23166;BME280;11751;42.700;24.170;2023-02-03T01:52:52;94051.50;;;2.06;70.62
23166;BME280;11751;42.700;24.170;2023-02-03T01:55:26;94070.84;;;2.00;71.55
23166;BME280;11751;42.700;24.170;2023-02-03T01:57:58;94071.84;;;2.14;72.79
23166;BME280;11751;42.700;24.170;2023-02-03T02:00:26;94063.78;;;2.16;72.08
23166;BME280;11751;42.700;24.170;2023-02-03T02:02:52;94069.84;;;2.03;72.00
23166;BME280;11751;42.700;24.170;2023-02-03T02:05:24;94065.34;;;2.00;72.43
23166;BME280;11751;42.700;24.170;2023-02-03T02:07:51;94074.63;;;2.03;71.47
23166;BME280;11751;42.700;24.170;2023-02-03T02:10:17;94065.06;;;2.04;71.69
23166;BME280;11751;42.700;24.170;2023-02-03T02:12:42;94057.28;;;2.02;72.06
23166;BME280;11751;42.700;24.170;2023-02-03T02:15:08;94072.09;;;1.99;72.38
23166;BME280;11751;42.700;24.170;2023-02-03T02:45:53;94107.22;;;1.82;76.18
23166;BME280;11751;42.700;24.170;2023-02-03T02:48:51;94113.00;;;1.84;72.39
23166;BME280;11751;42.700;24.170;2023-02-03T02:51:19;94104.22;;;1.80;70.71
23166;BME280;11751;42.700;24.170;2023-02-03T02:53:53;94133.34;;;1.98;71.14
23166;BME280;11751;42.700;24.170;2023-02-03T02:56:20;94115.03;;;1.89;71.69
23166;BME280;11751;42.700;24.170;2023-02-03T02:58:48;94128.06;;;2.00;72.15
23166;BME280;11751;42.700;24.170;2023-02-03T03:01:15;94126.81;;;1.95;77.22
23166;BME280;11751;42.700;24.170;2023-02-03T03:03:41;94119.03;;;1.83;81.83
23166;BME280;11751;42.700;24.170;2023-02-03T03:06:22;94139.31;;;1.69;83.73
23166;BME280;11751;42.700;24.170;2023-02-03T03:11:57;94138.28;;;1.56;85.74
23166;BME280;11751;42.700;24.170;2023-02-03T03:14:28;94129.53;;;1.52;86.93
23166;BME280;11751;42.700;24.170;2023-02-03T03:17:04;94116.97;;;1.62;77.06
23166;BME280;11751;42.700;24.170;2023-02-03T03:19:42;94117.00;;;1.72;83.50
23166;BME280;11751;42.700;24.170;2023-02-03T03:22:14;94144.78;;;1.53;88.12
23166;BME280;11751;42.700;24.170;2023-02-03T03:24:47;94136.53;;;1.64;88.32
23166;BME280;11751;42.700;24.170;2023-02-03T03:27:19;94134.03;;;1.60;89.24
23166;BME280;11751;42.700;24.170;2023-02-03T03:32:14;94142.50;;;1.35;91.90
23166;BME280;11751;42.700;24.170;2023-02-03T03:34:40;94147.28;;;1.40;92.35
23166;BME280;11751;42.700;24.170;2023-02-03T03:37:18;94159.31;;;1.37;92.40
23166;BME280;11751;42.700;24.170;2023-02-03T03:39:51;94161.56;;;1.44;92.39
23166;BME280;11751;42.700;24.170;2023-02-03T03:48:00;94172.66;;;1.55;91.83
23166;BME280;11751;42.700;24.170;2023-02-03T03:50:31;94175.66;;;1.57;91.90
23166;BME280;11751;42.700;24.170;2023-02-03T03:53:00;94172.16;;;1.62;91.92
23166;BME280;11751;42.700;24.170;2023-02-03T03:55:29;94166.16;;;1.58;91.69
23166;BME280;11751;42.700;24.170;2023-02-03T03:58:02;94157.09;;;1.52;92.39
23166;BME280;11751;42.700;24.170;2023-02-03T04:00:31;94169.41;;;1.62;92.84
23166;BME280;11751;42.700;24.170;2023-02-03T04:03:01;94156.53;;;1.37;94.14
23166;BME280;11751;42.700;24.170;2023-02-03T04:05:29;94162.63;;;1.52;93.40
23166;BME280;11751;42.700;24.170;2023-02-03T04:07:55;94171.88;;;1.43;94.15
23166;BME280;11751;42.700;24.170;2023-02-03T04:10:30;94186.50;;;1.13;95.90
23166;BME280;11751;42.700;24.170;2023-02-03T04:12:56;94179.59;;;1.34;95.25
23166;BME280;11751;42.700;24.170;2023-02-03T04:15:21;94184.66;;;1.41;95.05
23166;BME280;11751;42.700;24.170;2023-02-03T04:17:47;94194.19;;;1.45;95.14
23166;BME280;11751;42.700;24.170;2023-02-03T04:20:13;94162.63;;;1.52;94.15
23166;BME280;11751;42.700;24.170;2023-02-03T04:22:39;94178.16;;;1.55;94.10
23166;BME280;11751;42.700;24.170;2023-02-03T04:25:04;94180.69;;;1.64;93.94
23166;BME280;11751;42.700;24.170;2023-02-03T04:27:30;94181.19;;;1.57;92.39
23166;BME280;11751;42.700;24.170;2023-02-03T04:29:56;94173.91;;;1.54;92.94
23166;BME280;11751;42.700;24.170;2023-02-03T04:32:21;94181.94;;;1.57;93.21
23166;BME280;11751;42.700;24.170;2023-02-03T04:34:46;94190.00;;;1.66;93.39
23166;BME280;11751;42.700;24.170;2023-02-03T04:37:12;94170.19;;;1.67;93.24
23166;BME280;11751;42.700;24.170;2023-02-03T04:39:37;94183.41;;;1.53;93.81
23166;BME280;11751;42.700;24.170;2023-02-03T04:42:03;94190.22;;;1.52;93.91
23166;BME280;11751;42.700;24.170;2023-02-03T04:44:28;94196.50;;;1.58;93.76
23166;BME280;11751;42.700;24.170;2023-02-03T04:46:54;94180.44;;;1.62;93.21
23166;BME280;11751;42.700;24.170;2023-02-03T04:49:19;94192.25;;;1.62;93.37
23166;BME280;11751;42.700;24.170;2023-02-03T04:51:47;94199.22;;;1.47;93.78
23166;BME280;11751;42.700;24.170;2023-02-03T04:54:13;94207.97;;;1.40;94.21
23166;BME280;11751;42.700;24.170;2023-02-03T04:56:38;94199.22;;;1.47;93.84
23166;BME280;11751;42.700;24.170;2023-02-03T04:59:04;94194.63;;;1.33;94.67
23166;BME280;11751;42.700;24.170;2023-02-03T05:01:29;94198.69;;;1.43;93.97
23166;BME280;11751;42.700;24.170;2023-02-03T05:03:55;94205.22;;;1.40;94.23
23166;BME280;11751;42.700;24.170;2023-02-03T05:06:24;94209.44;;;1.30;94.51
23166;BME280;11751;42.700;24.170;2023-02-03T05:08:51;94208.69;;;1.35;94.00
23166;BME280;11751;42.700;24.170;2023-02-03T05:11:17;94218.53;;;1.47;93.56
23166;BME280;11751;42.700;24.170;2023-02-03T05:13:42;94204.41;;;1.34;94.47
23166;BME280;11751;42.700;24.170;2023-02-03T05:16:08;94204.72;;;1.41;94.19
23166;BME280;11751;42.700;24.170;2023-02-03T05:18:33;94210.19;;;1.36;94.18
23166;BME280;11751;42.700;24.170;2023-02-03T05:20:58;94201.59;;;1.23;94.83
23166;BME280;11751;42.700;24.170;2023-02-03T05:23:24;94204.63;;;1.25;94.81
23166;BME280;11751;42.700;24.170;2023-02-03T05:25:49;94211.72;;;1.37;94.74
23166;BME280;11751;42.700;24.170;2023-02-03T05:28:15;94209.16;;;1.28;95.58
23166;BME280;11751;42.700;24.170;2023-02-03T05:30:40;94209.91;;;1.28;95.10
23166;BME280;11751;42.700;24.170;2023-02-03T05:33:06;94217.69;;;1.24;90.64
23166;BME280;11751;42.700;24.170;2023-02-03T05:35:31;94231.72;;;1.26;90.46
23166;BME280;11751;42.700;24.170;2023-02-03T05:37:57;94216.66;;;1.22;92.09
23166;BME280;11751;42.700;24.170;2023-02-03T05:40:23;94221.34;;;1.10;94.53
23166;BME280;11751;42.700;24.170;2023-02-03T05:43:07;94207.28;;;1.03;95.11
23166;BME280;11751;42.700;24.170;2023-02-03T05:45:33;94218.13;;;1.12;95.32
23166;BME280;11751;42.700;24.170;2023-02-03T05:47:58;94213.06;;;1.05;95.43
23166;BME280;11751;42.700;24.170;2023-02-03T05:50:23;94220.28;;;0.97;95.23
23166;BME280;11751;42.700;24.170;2023-02-03T05:52:50;94221.06;;;1.03;95.29
23166;BME280;11751;42.700;24.170;2023-02-03T05:55:16;94219.78;;;0.98;95.07
23166;BME280;11751;42.700;24.170;2023-02-03T05:57:41;94233.72;;;0.84;96.07
23166;BME280;11751;42.700;24.170;2023-02-03T06:00:07;94212.94;;;0.83;95.69
23166;BME280;11751;42.700;24.170;2023-02-03T06:02:33;94228.03;;;0.93;93.99
23166;BME280;11751;42.700;24.170;2023-02-03T06:04:58;94230.59;;;1.02;94.48
23166;BME280;11751;42.700;24.170;2023-02-03T06:07:24;94227.97;;;0.82;95.66
23166;BME280;11751;42.700;24.170;2023-02-03T06:09:49;94235.84;;;1.00;95.52
23166;BME280;11751;42.700;24.170;2023-02-03T06:12:14;94240.66;;;1.10;95.29
23166;BME280;11751;42.700;24.170;2023-02-03T06:14:40;94242.66;;;1.10;95.44
23166;BME280;11751;42.700;24.170;2023-02-03T06:17:06;94239.72;;;1.19;94.99
23166;BME280;11751;42.700;24.170;2023-02-03T06:19:31;94249.22;;;1.18;95.00
23166;BME280;11751;42.700;24.170;2023-02-03T06:21:57;94257.94;;;1.05;95.08
23166;BME280;11751;42.700;24.170;2023-02-03T06:24:22;94246.25;;;1.21;92.28
23166;BME280;11751;42.700;24.170;2023-02-03T06:26:47;94252.19;;;1.09;88.98
23166;BME280;11751;42.700;24.170;2023-02-03T06:29:13;94240.53;;;1.36;87.36
23166;BME280;11751;42.700;24.170;2023-02-03T06:31:38;94228.06;;;1.51;89.12
23166;BME280;11751;42.700;24.170;2023-02-03T06:34:04;94244.59;;;1.46;88.28
23166;BME280;11751;42.700;24.170;2023-02-03T06:36:29;94234.88;;;1.61;86.70
23166;BME280;11751;42.700;24.170;2023-02-03T06:38:54;94246.00;;;1.77;84.53
23166;BME280;11751;42.700;24.170;2023-02-03T06:41:20;94248.00;;;1.82;85.47
23166;BME280;11751;42.700;24.170;2023-02-03T06:43:51;94243.19;;;1.67;83.89
23166;BME280;11751;42.700;24.170;2023-02-03T06:46:16;94260.00;;;1.68;83.56
23166;BME280;11751;42.700;24.170;2023-02-03T06:48:42;94266.47;;;1.55;86.52
23166;BME280;11751;42.700;24.170;2023-02-03T06:51:07;94278.81;;;1.65;87.72
23166;BME280;11751;42.700;24.170;2023-02-03T06:53:33;94270.09;;;1.82;87.64
23166;BME280;11751;42.700;24.170;2023-02-03T06:55:58;94284.06;;;1.63;86.07
23166;BME280;11751;42.700;24.170;2023-02-03T06:58:26;94278.53;;;1.63;85.95
23166;BME280;11751;42.700;24.170;2023-02-03T07:00:54;94277.56;;;1.66;86.69
23166;BME280;11751;42.700;24.170;2023-02-03T07:03:20;94284.09;;;1.73;85.75
23166;BME280;11751;42.700;24.170;2023-02-03T07:05:45;94277.59;;;1.76;87.09
23166;BME280;11751;42.700;24.170;2023-02-03T07:08:11;94298.59;;;1.58;83.63
23166;BME280;11751;42.700;24.170;2023-02-03T07:10:36;94291.09;;;1.64;86.17
23166;BME280;11751;42.700;24.170;2023-02-03T07:13:03;94292.09;;;1.61;87.66
23166;BME280;11751;42.700;24.170;2023-02-03T07:15:29;94283.28;;;1.57;88.06
23166;BME280;11751;42.700;24.170;2023-02-03T07:17:55;94283.84;;;1.66;83.96
23166;BME280;11751;42.700;24.170;2023-02-03T07:20:23;94301.41;;;1.68;83.76
23166;BME280;11751;42.700;24.170;2023-02-03T07:22:55;94316.72;;;1.69;83.56
23166;BME280;11751;42.700;24.170;2023-02-03T07:25:22;94303.38;;;1.63;82.30
23166;BME280;11751;42.700;24.170;2023-02-03T07:27:48;94304.44;;;1.70;78.45
23166;BME280;11751;42.700;24.170;2023-02-03T07:30:13;94311.03;;;1.89;79.59
23166;BME280;11751;42.700;24.170;2023-02-03T07:32:39;94317.31;;;1.95;79.90
23166;BME280;11751;42.700;24.170;2023-02-03T07:35:04;94309.78;;;1.90;81.48
23166;BME280;11751;42.700;24.170;2023-02-03T07:37:30;94326.41;;;2.07;82.16
23166;BME280;11751;42.700;24.170;2023-02-03T07:39:55;94325.38;;;2.04;83.38
23166;BME280;11751;42.700;24.170;2023-02-03T07:42:21;94319.94;;;2.21;83.20
23166;BME280;11751;42.700;24.170;2023-02-03T07:44:47;94318.44;;;2.25;83.20
23166;BME280;11751;42.700;24.170;2023-02-03T07:47:12;94357.38;;;1.74;84.26
23166;BME280;11751;42.700;24.170;2023-02-03T07:49:38;94347.91;;;1.86;77.69
23166;BME280;11751;42.700;24.170;2023-02-03T07:52:03;94345.41;;;1.88;78.89
23166;BME280;11751;42.700;24.170;2023-02-03T07:54:29;94339.47;;;2.06;78.92
23166;BME280;11751;42.700;24.170;2023-02-03T07:56:54;94330.50;;;2.28;78.65
23166;BME280;11751;42.700;24.170;2023-02-03T07:59:20;94335.53;;;2.24;78.83
23166;BME280;11751;42.700;24.170;2023-02-03T08:01:46;94345.75;;;2.12;79.50
23166;BME280;11751;42.700;24.170;2023-02-03T08:04:11;94353.03;;;2.10;75.62
23166;BME280;11751;42.700;24.170;2023-02-03T08:06:41;94362.09;;;2.10;77.88
23166;BME280;11751;42.700;24.170;2023-02-03T08:09:07;94366.78;;;1.99;76.00
23166;BME280;11751;42.700;24.170;2023-02-03T08:11:32;94358.34;;;2.19;74.46
23166;BME280;11751;42.700;24.170;2023-02-03T08:13:57;94364.66;;;2.30;76.23
23166;BME280;11751;42.700;24.170;2023-02-03T08:16:23;94372.97;;;2.36;76.50
23166;BME280;11751;42.700;24.170;2023-02-03T08:18:48;94354.91;;;2.35;76.71
23166;BME280;11751;42.700;24.170;2023-02-03T08:21:14;94378.94;;;2.23;76.15
23166;BME280;11751;42.700;24.170;2023-02-03T08:23:39;94338.25;;;2.13;72.02
23166;BME280;11751;42.700;24.170;2023-02-03T08:26:04;94366.41;;;2.28;74.66
23166;BME280;11751;42.700;24.170;2023-02-03T08:28:30;94353.59;;;2.30;74.99
23166;BME280;11751;42.700;24.170;2023-02-03T08:30:55;94348.31;;;2.27;75.47
23166;BME280;11751;42.700;24.170;2023-02-03T08:33:22;94363.66;;;2.33;73.23
23166;BME280;11751;42.700;24.170;2023-02-03T08:35:48;94369.72;;;2.37;72.44
23166;BME280;11751;42.700;24.170;2023-02-03T08:38:14;94354.09;;;2.29;70.30
23166;BME280;11751;42.700;24.170;2023-02-03T08:40:40;94348.28;;;2.21;70.73
23166;BME280;11751;42.700;24.170;2023-02-03T08:43:06;94366.94;;;2.37;72.07
23166;BME280;11751;42.700;24.170;2023-02-03T08:45:31;94360.22;;;2.60;73.11
23166;BME280;11751;42.700;24.170;2023-02-03T08:47:57;94369.06;;;2.75;73.38
23166;BME280;11751;42.700;24.170;2023-02-03T08:50:22;94358.97;;;2.72;71.79
23166;BME280;11751;42.700;24.170;2023-02-03T08:52:48;94361.78;;;2.83;72.92
23166;BME280;11751;42.700;24.170;2023-02-03T08:55:13;94369.56;;;3.01;72.39
23166;BME280;11751;42.700;24.170;2023-02-03T08:57:39;94368.31;;;3.02;72.52
23166;BME280;11751;42.700;24.170;2023-02-03T09:00:07;94364.56;;;3.21;71.87
23166;BME280;11751;42.700;24.170;2023-02-03T09:02:33;94365.06;;;3.14;70.40
23166;BME280;11751;42.700;24.170;2023-02-03T09:04:59;94360.53;;;3.11;69.83
23166;BME280;11751;42.700;24.170;2023-02-03T09:07:24;94360.81;;;3.08;70.42
23166;BME280;11751;42.700;24.170;2023-02-03T09:09:50;94364.31;;;3.25;71.29
23166;BME280;11751;42.700;24.170;2023-02-03T09:12:15;94365.81;;;3.47;71.37
23166;BME280;11751;42.700;24.170;2023-02-03T09:14:41;94376.38;;;3.43;71.12
23166;BME280;11751;42.700;24.170;2023-02-03T09:17:08;94385.69;;;3.24;70.06
23166;BME280;11751;42.700;24.170;2023-02-03T09:19:34;94362.81;;;3.24;69.29
23166;BME280;11751;42.700;24.170;2023-02-03T09:22:00;94349.22;;;3.37;67.94
23166;BME280;11751;42.700;24.170;2023-02-03T09:24:26;94360.28;;;3.26;68.22
23166;BME280;11751;42.700;24.170;2023-02-03T09:26:51;94378.63;;;3.39;70.68
23166;BME280;11751;42.700;24.170;2023-02-03T09:29:17;94379.66;;;3.31;71.33
23166;BME280;11751;42.700;24.170;2023-02-03T09:31:43;94369.31;;;3.53;70.38
23166;BME280;11751;42.700;24.170;2023-02-03T09:34:11;94374.06;;;3.75;70.23
23166;BME280;11751;42.700;24.170;2023-02-03T09:36:36;94387.44;;;3.76;70.38
23166;BME280;11751;42.700;24.170;2023-02-03T09:39:02;94385.41;;;3.71;69.90
23166;BME280;11751;42.700;24.170;2023-02-03T09:41:35;94384.91;;;3.67;68.20
23166;BME280;11751;42.700;24.170;2023-02-03T09:46:59;94382.41;;;3.09;69.78
23166;BME280;11751;42.700;24.170;2023-02-03T09:49:36;94368.81;;;3.38;69.37
23166;BME280;11751;42.700;24.170;2023-02-03T09:52:24;94363.31;;;3.28;69.89
23166;BME280;11751;42.700;24.170;2023-02-03T09:57:46;94353.47;;;3.48;67.72
23166;BME280;11751;42.700;24.170;2023-02-03T10:00:21;94360.22;;;3.80;66.87
23166;BME280;11751;42.700;24.170;2023-02-03T10:06:40;94352.84;;;3.99;64.70
23166;BME280;11751;42.700;24.170;2023-02-03T10:09:38;94350.25;;;4.23;62.64
23166;BME280;11751;42.700;24.170;2023-02-03T10:12:21;94344.66;;;4.39;63.02
23166;BME280;11751;42.700;24.170;2023-02-03T10:15:06;94336.03;;;4.89;63.66
23166;BME280;11751;42.700;24.170;2023-02-03T10:17:49;94336.53;;;4.93;59.98
23166;BME280;11751;42.700;24.170;2023-02-03T10:20:22;94327.00;;;5.17;62.64
23166;BME280;11751;42.700;24.170;2023-02-03T10:22:57;94322.44;;;5.49;61.47
23166;BME280;11751;42.700;24.170;2023-02-03T10:25:39;94329.34;;;5.37;56.58
23166;BME280;11751;42.700;24.170;2023-02-03T10:28:17;94338.47;;;5.62;60.24
23166;BME280;11751;42.700;24.170;2023-02-03T10:30:47;94339.16;;;5.97;62.54
23166;BME280;11751;42.700;24.170;2023-02-03T10:33:18;94344.13;;;6.04;60.60
23166;BME280;11751;42.700;24.170;2023-02-03T10:41:05;94350.28;;;5.97;60.26
23166;BME280;11751;42.700;24.170;2023-02-03T10:43:31;94347.72;;;5.99;59.94
23166;BME280;11751;42.700;24.170;2023-02-03T10:46:14;94338.44;;;6.15;60.60
23166;BME280;11751;42.700;24.170;2023-02-03T10:48:41;94346.72;;;6.20;56.75
23166;BME280;11751;42.700;24.170;2023-02-03T10:51:17;94332.19;;;5.85;51.62
23166;BME280;11751;42.700;24.170;2023-02-03T10:53:43;94334.19;;;5.90;58.16
23166;BME280;11751;42.700;24.170;2023-02-03T10:56:12;94333.72;;;6.10;55.95
23166;BME280;11751;42.700;24.170;2023-02-03T10:58:44;94333.47;;;6.08;56.15
23166;BME280;11751;42.700;24.170;2023-02-03T11:01:15;94338.28;;;6.07;56.50
23166;BME280;11751;42.700;24.170;2023-02-03T11:03:44;94343.56;;;6.11;54.87
23166;BME280;11751;42.700;24.170;2023-02-03T11:06:17;94327.75;;;6.00;55.97
23166;BME280;11751;42.700;24.170;2023-02-03T11:08:48;94325.59;;;6.12;54.90
23166;BME280;11751;42.700;24.170;2023-02-03T11:13:44;94325.69;;;6.25;58.58
23166;BME280;11751;42.700;24.170;2023-02-03T11:16:15;94320.31;;;6.32;57.60
23166;BME280;11751;42.700;24.170;2023-02-03T11:18:52;94313.66;;;6.17;57.40
23166;BME280;11751;42.700;24.170;2023-02-03T11:23:53;94305.72;;;6.45;56.07
23166;BME280;11751;42.700;24.170;2023-02-03T11:26:28;94296.25;;;6.72;55.51
23166;BME280;11751;42.700;24.170;2023-02-03T11:28:56;94299.09;;;6.84;55.29
23166;BME280;11751;42.700;24.170;2023-02-03T11:31:32;94297.91;;;6.98;54.25
23166;BME280;11751;42.700;24.170;2023-02-03T11:34:13;94295.63;;;6.97;53.09
23166;BME280;11751;42.700;24.170;2023-02-03T11:36:40;94284.47;;;6.97;51.81
23166;BME280;11751;42.700;24.170;2023-02-03T11:39:22;94285.66;;;6.88;54.26
23166;BME280;11751;42.700;24.170;2023-02-03T11:41:48;94282.84;;;6.88;52.90
23166;BME280;11751;42.700;24.170;2023-02-03T11:44:25;94285.41;;;6.68;49.05
23166;BME280;11751;42.700;24.170;2023-02-03T11:47:01;94283.03;;;6.59;50.42
23166;BME280;11751;42.700;24.170;2023-02-03T12:19:25;94260.63;;;5.43;62.21
23166;BME280;11751;42.700;24.170;2023-02-03T12:21:45;94252.63;;;5.34;56.01
23166;BME280;11751;42.700;24.170;2023-02-03T12:24:28;94254.38;;;5.37;54.53
23166;BME280;11751;42.700;24.170;2023-02-03T12:27:24;94258.94;;;5.59;56.98
23166;BME280;11751;42.700;24.170;2023-02-03T12:30:00;94247.34;;;5.60;55.69
23166;BME280;11751;42.700;24.170;2023-02-03T12:32:41;94250.41;;;5.57;58.52
23166;BME280;11751;42.700;24.170;2023-02-03T12:40:39;94257.84;;;5.43;61.57
23166;BME280;11751;42.700;24.170;2023-02-03T12:46:05;94241.44;;;5.21;64.53
23166;BME280;11751;42.700;24.170;2023-02-03T12:48:50;94247.06;;;5.10;63.44
23166;BME280;11751;42.700;24.170;2023-02-03T12:51:41;94253.66;;;5.07;64.00
23166;BME280;11751;42.700;24.170;2023-02-03T12:56:46;94239.63;;;4.95;63.22
23166;BME280;11751;42.700;24.170;2023-02-03T12:59:19;94235.25;;;5.04;62.72
23166;BME280;11751;42.700;24.170;2023-02-03T13:01:55;94243.13;;;5.01;62.64
23166;BME280;11751;42.700;24.170;2023-02-03T13:04:35;94236.75;;;5.05;62.77
23166;BME280;11751;42.700;24.170;2023-02-03T13:07:07;94237.78;;;5.08;62.91
23166;BME280;11751;42.700;24.170;2023-02-03T13:12:30;94231.31;;;4.95;63.80
23166;BME280;11751;42.700;24.170;2023-02-03T13:15:18;94225.91;;;5.07;63.35
23166;BME280;11751;42.700;24.170;2023-02-03T13:17:54;94213.28;;;5.06;63.83
23166;BME280;11751;42.700;24.170;2023-02-03T13:20:27;94206.56;;;4.97;62.97
23166;BME280;11751;42.700;24.170;2023-02-03T13:22:56;94209.06;;;5.00;64.16
23166;BME280;11751;42.700;24.170;2023-02-03T13:25:31;94213.88;;;5.00;63.45
23166;BME280;11751;42.700;24.170;2023-02-03T13:28:21;94214.66;;;4.95;63.95
23166;BME280;11751;42.700;24.170;2023-02-03T13:38:43;94205.78;;;4.72;63.43
23166;BME280;11751;42.700;24.170;2023-02-03T13:41:25;94213.84;;;4.41;64.78
23166;BME280;11751;42.700;24.170;2023-02-03T13:43:53;94208.22;;;4.52;63.72
23166;BME280;11751;42.700;24.170;2023-02-03T13:46:26;94210.00;;;4.49;64.17
23166;BME280;11751;42.700;24.170;2023-02-03T13:48:56;94208.53;;;4.43;64.34
23166;BME280;11751;42.700;24.170;2023-02-03T13:51:25;94201.25;;;4.40;64.53
23166;BME280;11751;42.700;24.170;2023-02-03T13:54:01;94211.69;;;4.58;63.79
23166;BME280;11751;42.700;24.170;2023-02-03T13:56:28;94215.63;;;4.38;64.06
23166;BME280;11751;42.700;24.170;2023-02-03T14:01:42;94220.25;;;4.25;63.09
23166;BME280;11751;42.700;24.170;2023-02-03T14:12:16;94229.75;;;3.89;64.03
23166;BME280;11751;42.700;24.170;2023-02-03T14:15:29;94229.00;;;3.94;63.65
23166;BME280;11751;42.700;24.170;2023-02-03T14:23:05;94242.13;;;3.77;63.96
23166;BME280;11751;42.700;24.170;2023-02-03T14:25:54;94226.31;;;3.72;61.91
23166;BME280;11751;42.700;24.170;2023-02-03T14:28:24;94216.19;;;3.80;61.57
23166;BME280;11751;42.700;24.170;2023-02-03T14:39:00;94214.38;;;3.94;62.18
23166;BME280;11751;42.700;24.170;2023-02-03T14:41:56;94222.19;;;3.95;61.59
23166;BME280;11751;42.700;24.170;2023-02-03T14:47:40;94230.88;;;3.64;60.16
23166;BME280;11751;42.700;24.170;2023-02-03T14:53:33;94234.38;;;3.70;60.57
23166;BME280;11751;42.700;24.170;2023-02-03T14:58:48;94234.06;;;3.79;60.81
23166;BME280;11751;42.700;24.170;2023-02-03T15:06:40;94233.91;;;3.66;59.86
23166;BME280;11751;42.700;24.170;2023-02-03T15:11:50;94228.13;;;3.59;59.32
23166;BME280;11751;42.700;24.170;2023-02-03T15:14:27;94235.66;;;3.64;58.86
23166;BME280;11751;42.700;24.170;2023-02-03T15:17:11;94230.09;;;3.69;59.26
23166;BME280;11751;42.700;24.170;2023-02-03T15:19:40;94232.13;;;3.63;58.39
23166;BME280;11751;42.700;24.170;2023-02-03T15:22:27;94230.88;;;3.64;59.36
23166;BME280;11751;42.700;24.170;2023-02-03T15:25:01;94233.00;;;3.37;59.63
23166;BME280;11751;42.700;24.170;2023-02-03T15:27:32;94218.38;;;3.41;59.45
23166;BME280;11751;42.700;24.170;2023-02-03T15:29:57;94230.44;;;3.38;59.75
23166;BME280;11751;42.700;24.170;2023-02-03T15:32:29;94229.22;;;3.29;60.16
23166;BME280;11751;42.700;24.170;2023-02-03T15:34:57;94231.50;;;3.19;60.95
23166;BME280;11751;42.700;24.170;2023-02-03T15:37:33;94216.44;;;3.09;61.68
23166;BME280;11751;42.700;24.170;2023-02-03T15:40:19;94212.47;;;2.83;62.69
23166;BME280;11751;42.700;24.170;2023-02-03T15:43:06;94208.97;;;2.66;63.44